sensor_id;sensor_type;location;lat;lon;timestamp;P1;durP1;ratioP1;P2;durP2;ratioP2
55112;SDS011;41006;50.920;3.456;2023-05-13T00:00:24;69.07;;;49.80;;
55112;SDS011;41006;50.920;3.456;2023-05-13T00:00:57;62.88;;;49.28;;
55112;SDS011;41006;50.920;3.456;2023-05-13T00:01:28;65.85;;;51.17;;
55112;SDS011;41006;50.920;3.456;2023-05-13T00:01:58;63.28;;;51.90;;
55112;SDS011;41006;50.920;3.456;2023-05-13T00:02:35;59.63;;;48.83;;
55112;SDS011;41006;50.920;3.456;2023-05-13T00:03:08;67.80;;;53.53;;
55112;SDS011;41006;50.920;3.456;2023-05-13T00:03:38;65.85;;;50.33;;
55112;SDS011;41006;50.920;3.456;2023-05-13T00:04:08;68.80;;;50.40;;
55112;SDS011;41006;50.920;3.456;2023-05-13T00:04:44;61.88;;;50.72;;
55112;SDS011;41006;50.920;3.456;2023-05-13T00:05:19;70.50;;;52.05;;
55112;SDS011;41006;50.920;3.456;2023-05-13T00:05:54;67.32;;;50.50;;
55112;SDS011;41006;50.920;3.456;2023-05-13T00:06:27;65.20;;;51.85;;
55112;SDS011;41006;50.920;3.456;2023-05-13T00:07:03;58.00;;;50.60;;
55112;SDS011;41006;50.920;3.456;2023-05-13T00:07:36;63.78;;;51.10;;
55112;SDS011;41006;50.920;3.456;2023-05-13T00:08:06;62.03;;;50.10;;
55112;SDS011;41006;50.920;3.456;2023-05-13T00:08:39;68.93;;;50.80;;
55112;SDS011;41006;50.920;3.456;2023-05-13T00:09:12;65.72;;;49.00;;
55112;SDS011;41006;50.920;3.456;2023-05-13T00:09:45;60.30;;;49.42;;
55112;SDS011;41006;50.920;3.456;2023-05-13T00:10:18;65.47;;;50.10;;
55112;SDS011;41006;50.920;3.456;2023-05-13T00:10:49;77.53;;;50.28;;
55112;SDS011;41006;50.920;3.456;2023-05-13T00:11:22;65.18;;;51.08;;
55112;SDS011;41006;50.920;3.456;2023-05-13T00:11:55;68.35;;;50.92;;
55112;SDS011;41006;50.920;3.456;2023-05-13T00:12:27;62.45;;;48.05;;
55112;SDS011;41006;50.920;3.456;2023-05-13T00:13:00;61.88;;;51.17;;
55112;SDS011;41006;50.920;3.456;2023-05-13T00:13:35;63.05;;;49.30;;
55112;SDS011;41006;50.920;3.456;2023-05-13T00:14:08;58.83;;;51.70;;
55112;SDS011;41006;50.920;3.456;2023-05-13T00:14:39;67.18;;;51.05;;
55112;SDS011;41006;50.920;3.456;2023-05-13T00:15:10;64.85;;;51.17;;
55112;SDS011;41006;50.920;3.456;2023-05-13T00:15:42;66.07;;;49.55;;
55112;SDS011;41006;50.920;3.456;2023-05-13T00:16:13;64.78;;;50.35;;
55112;SDS011;41006;50.920;3.456;2023-05-13T00:16:43;66.68;;;51.45;;
55112;SDS011;41006;50.920;3.456;2023-05-13T00:17:14;72.78;;;52.08;;
55112;SDS011;41006;50.920;3.456;2023-05-13T00:17:44;59.55;;;52.05;;
55112;SDS011;41006;50.920;3.456;2023-05-13T00:18:15;61.55;;;50.00;;
55112;SDS011;41006;50.920;3.456;2023-05-13T00:18:48;67.13;;;52.35;;
55112;SDS011;41006;50.920;3.456;2023-05-13T00:19:18;69.72;;;52.08;;
55112;SDS011;41006;50.920;3.456;2023-05-13T00:19:52;71.30;;;52.55;;
55112;SDS011;41006;50.920;3.456;2023-05-13T00:20:22;63.05;;;50.03;;
55112;SDS011;41006;50.920;3.456;2023-05-13T00:20:54;60.50;;;50.40;;
55112;SDS011;41006;50.920;3.456;2023-05-13T00:21:27;73.43;;;51.55;;
55112;SDS011;41006;50.920;3.456;2023-05-13T00:22:01;65.05;;;50.78;;
55112;SDS011;41006;50.920;3.456;2023-05-13T00:22:31;57.78;;;48.97;;
55112;SDS011;41006;50.920;3.456;2023-05-13T00:23:01;69.70;;;55.15;;
55112;SDS011;41006;50.920;3.456;2023-05-13T00:23:32;62.35;;;54.40;;
55112;SDS011;41006;50.920;3.456;2023-05-13T00:24:04;73.93;;;54.42;;
55112;SDS011;41006;50.920;3.456;2023-05-13T00:24:35;67.20;;;52.80;;
55112;SDS011;41006;50.920;3.456;2023-05-13T00:25:09;66.97;;;52.65;;
55112;SDS011;41006;50.920;3.456;2023-05-13T00:25:42;65.60;;;53.15;;
55112;SDS011;41006;50.920;3.456;2023-05-13T00:26:16;70.97;;;53.35;;
55112;SDS011;41006;50.920;3.456;2023-05-13T00:26:49;64.55;;;49.38;;
55112;SDS011;41006;50.920;3.456;2023-05-13T00:27:19;62.30;;;50.45;;
55112;SDS011;41006;50.920;3.456;2023-05-13T00:27:50;70.47;;;52.28;;
55112;SDS011;41006;50.920;3.456;2023-05-13T00:28:22;65.00;;;49.97;;
55112;SDS011;41006;50.920;3.456;2023-05-13T00:28:53;63.65;;;50.47;;
55112;SDS011;41006;50.920;3.456;2023-05-13T00:29:23;59.60;;;52.85;;
55112;SDS011;41006;50.920;3.456;2023-05-13T00:29:54;64.82;;;52.50;;
55112;SDS011;41006;50.920;3.456;2023-05-13T00:30:24;70.43;;;53.22;;
55112;SDS011;41006;50.920;3.456;2023-05-13T00:30:57;60.42;;;50.67;;
55112;SDS011;41006;50.920;3.456;2023-05-13T00:31:27;65.82;;;52.70;;
55112;SDS011;41006;50.920;3.456;2023-05-13T00:31:57;65.80;;;52.15;;
55112;SDS011;41006;50.920;3.456;2023-05-13T00:32:33;70.25;;;50.25;;
55112;SDS011;41006;50.920;3.456;2023-05-13T00:33:10;64.70;;;50.63;;
55112;SDS011;41006;50.920;3.456;2023-05-13T00:33:40;69.57;;;51.85;;
55112;SDS011;41006;50.920;3.456;2023-05-13T00:34:13;60.47;;;51.42;;
55112;SDS011;41006;50.920;3.456;2023-05-13T00:34:43;73.13;;;51.30;;
55112;SDS011;41006;50.920;3.456;2023-05-13T00:35:16;65.65;;;51.88;;
55112;SDS011;41006;50.920;3.456;2023-05-13T00:35:47;70.50;;;51.50;;
55112;SDS011;41006;50.920;3.456;2023-05-13T00:36:22;67.10;;;52.25;;
55112;SDS011;41006;50.920;3.456;2023-05-13T00:36:58;62.08;;;50.72;;
55112;SDS011;41006;50.920;3.456;2023-05-13T00:37:31;58.95;;;51.17;;
55112;SDS011;41006;50.920;3.456;2023-05-13T00:38:08;65.45;;;50.45;;
55112;SDS011;41006;50.920;3.456;2023-05-13T00:38:38;67.60;;;51.10;;
55112;SDS011;41006;50.920;3.456;2023-05-13T00:39:09;71.72;;;52.70;;
55112;SDS011;41006;50.920;3.456;2023-05-13T00:39:46;74.90;;;54.17;;
55112;SDS011;41006;50.920;3.456;2023-05-13T00:40:20;76.30;;;52.08;;
55112;SDS011;41006;50.920;3.456;2023-05-13T00:40:52;65.10;;;50.88;;
55112;SDS011;41006;50.920;3.456;2023-05-13T00:41:25;63.53;;;52.45;;
55112;SDS011;41006;50.920;3.456;2023-05-13T00:41:55;73.20;;;54.42;;
55112;SDS011;41006;50.920;3.456;2023-05-13T00:42:28;76.25;;;54.92;;
55112;SDS011;41006;50.920;3.456;2023-05-13T00:42:58;69.22;;;53.40;;
55112;SDS011;41006;50.920;3.456;2023-05-13T00:43:29;67.28;;;53.58;;
55112;SDS011;41006;50.920;3.456;2023-05-13T00:44:02;78.00;;;53.50;;
55112;SDS011;41006;50.920;3.456;2023-05-13T00:44:34;65.13;;;54.70;;
55112;SDS011;41006;50.920;3.456;2023-05-13T00:45:07;66.30;;;53.03;;
55112;SDS011;41006;50.920;3.456;2023-05-13T00:45:40;83.60;;;51.40;;
55112;SDS011;41006;50.920;3.456;2023-05-13T00:46:11;72.18;;;54.38;;
55112;SDS011;41006;50.920;3.456;2023-05-13T00:46:44;68.95;;;54.15;;
55112;SDS011;41006;50.920;3.456;2023-05-13T00:47:15;68.18;;;53.33;;
55112;SDS011;41006;50.920;3.456;2023-05-13T00:47:50;73.82;;;54.03;;
55112;SDS011;41006;50.920;3.456;2023-05-13T00:48:26;73.93;;;53.00;;
55112;SDS011;41006;50.920;3.456;2023-05-13T00:49:03;70.97;;;52.83;;
55112;SDS011;41006;50.920;3.456;2023-05-13T00:49:36;70.65;;;52.20;;
55112;SDS011;41006;50.920;3.456;2023-05-13T00:50:11;70.75;;;51.65;;
55112;SDS011;41006;50.920;3.456;2023-05-13T00:50:45;65.00;;;53.45;;
55112;SDS011;41006;50.920;3.456;2023-05-13T00:51:15;69.30;;;53.60;;
55112;SDS011;41006;50.920;3.456;2023-05-13T00:51:47;76.93;;;54.90;;
55112;SDS011;41006;50.920;3.456;2023-05-13T00:52:19;78.97;;;56.58;;
55112;SDS011;41006;50.920;3.456;2023-05-13T00:52:50;74.05;;;55.50;;
55112;SDS011;41006;50.920;3.456;2023-05-13T00:53:23;84.80;;;53.60;;
55112;SDS011;41006;50.920;3.456;2023-05-13T00:53:54;69.60;;;53.55;;
55112;SDS011;41006;50.920;3.456;2023-05-13T00:54:28;72.85;;;55.17;;
55112;SDS011;41006;50.920;3.456;2023-05-13T00:54:59;78.80;;;55.70;;
55112;SDS011;41006;50.920;3.456;2023-05-13T00:55:32;67.32;;;52.78;;
55112;SDS011;41006;50.920;3.456;2023-05-13T00:56:05;74.80;;;53.28;;
55112;SDS011;41006;50.920;3.456;2023-05-13T00:56:37;75.85;;;56.30;;
55112;SDS011;41006;50.920;3.456;2023-05-13T00:57:08;73.75;;;54.28;;
55112;SDS011;41006;50.920;3.456;2023-05-13T00:57:40;75.13;;;55.50;;
55112;SDS011;41006;50.920;3.456;2023-05-13T00:58:15;76.22;;;54.88;;
55112;SDS011;41006;50.920;3.456;2023-05-13T00:58:50;77.00;;;51.38;;
55112;SDS011;41006;50.920;3.456;2023-05-13T00:59:22;65.28;;;52.80;;
55112;SDS011;41006;50.920;3.456;2023-05-13T00:59:53;79.25;;;56.28;;
55112;SDS011;41006;50.920;3.456;2023-05-13T01:00:28;72.97;;;53.15;;
55112;SDS011;41006;50.920;3.456;2023-05-13T01:05:44;74.35;;;57.47;;
55112;SDS011;41006;50.920;3.456;2023-05-13T01:06:20;78.25;;;57.47;;
55112;SDS011;41006;50.920;3.456;2023-05-13T01:07:10;74.15;;;56.90;;
55112;SDS011;41006;50.920;3.456;2023-05-13T01:08:21;74.50;;;57.65;;
55112;SDS011;41006;50.920;3.456;2023-05-13T01:09:47;77.47;;;56.17;;
55112;SDS011;41006;50.920;3.456;2023-05-13T01:10:08;75.43;;;53.78;;
55112;SDS011;41006;50.920;3.456;2023-05-13T01:10:48;72.75;;;56.03;;
55112;SDS011;41006;50.920;3.456;2023-05-13T01:11:26;76.75;;;57.83;;
55112;SDS011;41006;50.920;3.456;2023-05-13T01:12:02;70.03;;;55.85;;
55112;SDS011;41006;50.920;3.456;2023-05-13T01:12:44;79.90;;;56.75;;
55112;SDS011;41006;50.920;3.456;2023-05-13T01:13:23;67.25;;;55.28;;
55112;SDS011;41006;50.920;3.456;2023-05-13T01:14:05;75.03;;;56.83;;
55112;SDS011;41006;50.920;3.456;2023-05-13T01:14:44;73.30;;;55.92;;
55112;SDS011;41006;50.920;3.456;2023-05-13T01:15:28;76.90;;;54.10;;
55112;SDS011;41006;50.920;3.456;2023-05-13T01:16:06;74.65;;;55.88;;
55112;SDS011;41006;50.920;3.456;2023-05-13T01:16:48;79.78;;;56.53;;
55112;SDS011;41006;50.920;3.456;2023-05-13T01:17:27;79.18;;;56.38;;
55112;SDS011;41006;50.920;3.456;2023-05-13T01:18:45;68.13;;;55.65;;
55112;SDS011;41006;50.920;3.456;2023-05-13T01:20:03;73.80;;;54.67;;
55112;SDS011;41006;50.920;3.456;2023-05-13T01:20:39;73.68;;;53.97;;
55112;SDS011;41006;50.920;3.456;2023-05-13T01:21:11;77.63;;;53.17;;
55112;SDS011;41006;50.920;3.456;2023-05-13T01:21:42;80.07;;;54.75;;
55112;SDS011;41006;50.920;3.456;2023-05-13T01:22:21;72.65;;;54.22;;
55112;SDS011;41006;50.920;3.456;2023-05-13T01:22:51;73.10;;;54.50;;
55112;SDS011;41006;50.920;3.456;2023-05-13T01:23:21;76.63;;;52.60;;
55112;SDS011;41006;50.920;3.456;2023-05-13T01:23:54;74.18;;;54.95;;
55112;SDS011;41006;50.920;3.456;2023-05-13T01:24:25;79.85;;;54.65;;
55112;SDS011;41006;50.920;3.456;2023-05-13T01:24:55;81.60;;;56.28;;
55112;SDS011;41006;50.920;3.456;2023-05-13T01:25:28;70.88;;;55.70;;
55112;SDS011;41006;50.920;3.456;2023-05-13T01:25:58;77.60;;;54.20;;
55112;SDS011;41006;50.920;3.456;2023-05-13T01:26:29;75.05;;;57.13;;
55112;SDS011;41006;50.920;3.456;2023-05-13T01:27:01;79.72;;;56.65;;
55112;SDS011;41006;50.920;3.456;2023-05-13T01:27:37;65.40;;;53.50;;
55112;SDS011;41006;50.920;3.456;2023-05-13T01:28:10;69.80;;;55.05;;
55112;SDS011;41006;50.920;3.456;2023-05-13T01:28:42;81.38;;;56.08;;
55112;SDS011;41006;50.920;3.456;2023-05-13T01:29:13;74.90;;;55.47;;
55112;SDS011;41006;50.920;3.456;2023-05-13T01:29:48;77.45;;;54.28;;
55112;SDS011;41006;50.920;3.456;2023-05-13T01:30:21;79.40;;;55.88;;
55112;SDS011;41006;50.920;3.456;2023-05-13T01:30:54;67.18;;;53.20;;
55112;SDS011;41006;50.920;3.456;2023-05-13T01:31:26;77.78;;;53.70;;
55112;SDS011;41006;50.920;3.456;2023-05-13T01:31:58;62.50;;;53.67;;
55112;SDS011;41006;50.920;3.456;2023-05-13T01:32:32;65.20;;;53.28;;
55112;SDS011;41006;50.920;3.456;2023-05-13T01:33:04;78.00;;;54.58;;
55112;SDS011;41006;50.920;3.456;2023-05-13T01:33:35;69.53;;;55.30;;
55112;SDS011;41006;50.920;3.456;2023-05-13T01:34:07;80.10;;;55.20;;
55112;SDS011;41006;50.920;3.456;2023-05-13T01:34:40;71.95;;;55.05;;
55112;SDS011;41006;50.920;3.456;2023-05-13T01:35:13;73.50;;;55.00;;
55112;SDS011;41006;50.920;3.456;2023-05-13T01:35:50;82.25;;;57.38;;
55112;SDS011;41006;50.920;3.456;2023-05-13T01:36:21;71.10;;;54.40;;
55112;SDS011;41006;50.920;3.456;2023-05-13T01:36:58;72.40;;;55.55;;
55112;SDS011;41006;50.920;3.456;2023-05-13T01:37:29;67.75;;;53.22;;
55112;SDS011;41006;50.920;3.456;2023-05-13T01:38:00;67.95;;;56.15;;
55112;SDS011;41006;50.920;3.456;2023-05-13T01:38:34;69.97;;;55.60;;
55112;SDS011;41006;50.920;3.456;2023-05-13T01:39:06;74.07;;;55.22;;
55112;SDS011;41006;50.920;3.456;2023-05-13T01:39:39;75.13;;;56.10;;
55112;SDS011;41006;50.920;3.456;2023-05-13T01:40:13;76.78;;;54.00;;
55112;SDS011;41006;50.920;3.456;2023-05-13T01:40:47;71.35;;;53.17;;
55112;SDS011;41006;50.920;3.456;2023-05-13T01:41:19;75.28;;;56.20;;
55112;SDS011;41006;50.920;3.456;2023-05-13T01:41:55;78.35;;;55.40;;
55112;SDS011;41006;50.920;3.456;2023-05-13T01:42:28;71.13;;;54.35;;
55112;SDS011;41006;50.920;3.456;2023-05-13T01:42:59;67.93;;;54.80;;
55112;SDS011;41006;50.920;3.456;2023-05-13T01:43:32;72.95;;;55.42;;
55112;SDS011;41006;50.920;3.456;2023-05-13T01:44:07;75.35;;;55.90;;
55112;SDS011;41006;50.920;3.456;2023-05-13T01:44:38;70.93;;;54.95;;
55112;SDS011;41006;50.920;3.456;2023-05-13T01:45:08;74.05;;;52.83;;
55112;SDS011;41006;50.920;3.456;2023-05-13T01:45:40;69.35;;;56.05;;
55112;SDS011;41006;50.920;3.456;2023-05-13T01:46:11;66.15;;;54.05;;
55112;SDS011;41006;50.920;3.456;2023-05-13T01:46:42;75.90;;;56.75;;
55112;SDS011;41006;50.920;3.456;2023-05-13T01:47:15;63.10;;;54.22;;
55112;SDS011;41006;50.920;3.456;2023-05-13T01:47:45;77.15;;;55.00;;
55112;SDS011;41006;50.920;3.456;2023-05-13T01:48:16;73.32;;;56.53;;
55112;SDS011;41006;50.920;3.456;2023-05-13T01:48:47;74.82;;;54.72;;
55112;SDS011;41006;50.920;3.456;2023-05-13T01:49:18;74.45;;;54.20;;
55112;SDS011;41006;50.920;3.456;2023-05-13T01:49:53;73.10;;;56.38;;
55112;SDS011;41006;50.920;3.456;2023-05-13T01:50:24;66.57;;;54.15;;
55112;SDS011;41006;50.920;3.456;2023-05-13T01:50:57;75.32;;;54.90;;
55112;SDS011;41006;50.920;3.456;2023-05-13T01:51:27;79.80;;;56.00;;
55112;SDS011;41006;50.920;3.456;2023-05-13T01:51:58;67.05;;;54.42;;
55112;SDS011;41006;50.920;3.456;2023-05-13T01:52:28;74.60;;;56.75;;
55112;SDS011;41006;50.920;3.456;2023-05-13T01:52:58;75.75;;;54.50;;
55112;SDS011;41006;50.920;3.456;2023-05-13T01:53:29;80.43;;;57.40;;
55112;SDS011;41006;50.920;3.456;2023-05-13T01:54:03;75.43;;;55.10;;
55112;SDS011;41006;50.920;3.456;2023-05-13T01:54:36;73.50;;;55.05;;
55112;SDS011;41006;50.920;3.456;2023-05-13T01:55:11;69.80;;;56.25;;
55112;SDS011;41006;50.920;3.456;2023-05-13T01:55:42;69.78;;;53.47;;
55112;SDS011;41006;50.920;3.456;2023-05-13T01:56:12;73.88;;;57.00;;
55112;SDS011;41006;50.920;3.456;2023-05-13T01:56:48;75.15;;;55.72;;
55112;SDS011;41006;50.920;3.456;2023-05-13T01:57:23;65.78;;;52.65;;
55112;SDS011;41006;50.920;3.456;2023-05-13T01:57:53;80.72;;;55.35;;
55112;SDS011;41006;50.920;3.456;2023-05-13T01:58:24;69.53;;;53.65;;
55112;SDS011;41006;50.920;3.456;2023-05-13T01:58:57;72.82;;;54.58;;
55112;SDS011;41006;50.920;3.456;2023-05-13T01:59:27;71.88;;;55.30;;
55112;SDS011;41006;50.920;3.456;2023-05-13T02:00:00;75.13;;;56.10;;
55112;SDS011;41006;50.920;3.456;2023-05-13T02:00:37;77.53;;;55.60;;
55112;SDS011;41006;50.920;3.456;2023-05-13T02:01:07;72.90;;;56.00;;
55112;SDS011;41006;50.920;3.456;2023-05-13T02:01:37;70.90;;;55.60;;
55112;SDS011;41006;50.920;3.456;2023-05-13T02:02:09;67.00;;;54.13;;
55112;SDS011;41006;50.920;3.456;2023-05-13T02:02:39;83.53;;;56.17;;
55112;SDS011;41006;50.920;3.456;2023-05-13T02:03:10;69.60;;;57.80;;
55112;SDS011;41006;50.920;3.456;2023-05-13T02:03:40;69.22;;;56.42;;
55112;SDS011;41006;50.920;3.456;2023-05-13T02:04:14;69.45;;;54.65;;
55112;SDS011;41006;50.920;3.456;2023-05-13T02:04:49;73.35;;;54.53;;
55112;SDS011;41006;50.920;3.456;2023-05-13T02:05:19;78.88;;;57.10;;
55112;SDS011;41006;50.920;3.456;2023-05-13T02:05:50;81.55;;;57.42;;
55112;SDS011;41006;50.920;3.456;2023-05-13T02:06:20;66.78;;;53.92;;
55112;SDS011;41006;50.920;3.456;2023-05-13T02:06:50;83.80;;;56.85;;
55112;SDS011;41006;50.920;3.456;2023-05-13T02:07:21;72.60;;;56.67;;
55112;SDS011;41006;50.920;3.456;2023-05-13T02:07:53;79.90;;;56.60;;
55112;SDS011;41006;50.920;3.456;2023-05-13T02:08:24;76.22;;;56.28;;
55112;SDS011;41006;50.920;3.456;2023-05-13T02:08:56;83.43;;;58.45;;
55112;SDS011;41006;50.920;3.456;2023-05-13T02:09:27;81.00;;;59.78;;
55112;SDS011;41006;50.920;3.456;2023-05-13T02:09:57;80.38;;;56.05;;
55112;SDS011;41006;50.920;3.456;2023-05-13T02:10:32;72.45;;;55.00;;
55112;SDS011;41006;50.920;3.456;2023-05-13T02:11:03;80.97;;;57.22;;
55112;SDS011;41006;50.920;3.456;2023-05-13T02:11:33;78.00;;;57.58;;
55112;SDS011;41006;50.920;3.456;2023-05-13T02:12:04;78.13;;;57.10;;
55112;SDS011;41006;50.920;3.456;2023-05-13T02:12:35;79.15;;;58.08;;
55112;SDS011;41006;50.920;3.456;2023-05-13T02:13:05;80.75;;;60.42;;
55112;SDS011;41006;50.920;3.456;2023-05-13T02:13:36;82.55;;;58.05;;
55112;SDS011;41006;50.920;3.456;2023-05-13T02:14:10;71.80;;;59.08;;
55112;SDS011;41006;50.920;3.456;2023-05-13T02:14:41;76.38;;;58.25;;
55112;SDS011;41006;50.920;3.456;2023-05-13T02:15:11;77.55;;;58.30;;
55112;SDS011;41006;50.920;3.456;2023-05-13T02:15:46;68.85;;;56.28;;
55112;SDS011;41006;50.920;3.456;2023-05-13T02:16:16;72.60;;;55.63;;
55112;SDS011;41006;50.920;3.456;2023-05-13T02:16:49;75.47;;;58.20;;
55112;SDS011;41006;50.920;3.456;2023-05-13T02:17:20;77.00;;;57.60;;
55112;SDS011;41006;50.920;3.456;2023-05-13T02:17:53;72.00;;;58.95;;
55112;SDS011;41006;50.920;3.456;2023-05-13T02:18:24;74.28;;;56.83;;
55112;SDS011;41006;50.920;3.456;2023-05-13T02:18:54;74.85;;;56.40;;
55112;SDS011;41006;50.920;3.456;2023-05-13T02:19:24;71.40;;;58.22;;
55112;SDS011;41006;50.920;3.456;2023-05-13T02:19:55;72.68;;;55.97;;
55112;SDS011;41006;50.920;3.456;2023-05-13T02:20:25;84.47;;;59.78;;
55112;SDS011;41006;50.920;3.456;2023-05-13T02:20:59;76.53;;;56.78;;
55112;SDS011;41006;50.920;3.456;2023-05-13T02:21:29;77.15;;;58.30;;
55112;SDS011;41006;50.920;3.456;2023-05-13T02:22:02;75.35;;;56.40;;
55112;SDS011;41006;50.920;3.456;2023-05-13T02:22:35;65.20;;;55.72;;
55112;SDS011;41006;50.920;3.456;2023-05-13T02:23:05;77.32;;;59.08;;
55112;SDS011;41006;50.920;3.456;2023-05-13T02:23:38;83.97;;;57.28;;
55112;SDS011;41006;50.920;3.456;2023-05-13T02:24:08;82.57;;;59.33;;
55112;SDS011;41006;50.920;3.456;2023-05-13T02:24:41;79.82;;;58.28;;
55112;SDS011;41006;50.920;3.456;2023-05-13T02:25:16;82.95;;;56.42;;
55112;SDS011;41006;50.920;3.456;2023-05-13T02:25:49;74.63;;;60.35;;
55112;SDS011;41006;50.920;3.456;2023-05-13T02:26:19;83.45;;;57.30;;
55112;SDS011;41006;50.920;3.456;2023-05-13T02:26:50;77.22;;;58.42;;
55112;SDS011;41006;50.920;3.456;2023-05-13T02:27:22;76.53;;;61.08;;
55112;SDS011;41006;50.920;3.456;2023-05-13T02:28:00;87.07;;;57.85;;
55112;SDS011;41006;50.920;3.456;2023-05-13T02:28:32;79.35;;;58.53;;
55112;SDS011;41006;50.920;3.456;2023-05-13T02:29:05;80.93;;;60.30;;
55112;SDS011;41006;50.920;3.456;2023-05-13T02:29:36;82.25;;;60.40;;
55112;SDS011;41006;50.920;3.456;2023-05-13T02:30:08;77.57;;;59.03;;
55112;SDS011;41006;50.920;3.456;2023-05-13T02:30:39;74.70;;;58.28;;
55112;SDS011;41006;50.920;3.456;2023-05-13T02:31:14;78.20;;;59.55;;
55112;SDS011;41006;50.920;3.456;2023-05-13T02:31:45;83.00;;;57.13;;
55112;SDS011;41006;50.920;3.456;2023-05-13T02:32:19;77.93;;;57.78;;
55112;SDS011;41006;50.920;3.456;2023-05-13T02:32:49;79.55;;;59.75;;
55112;SDS011;41006;50.920;3.456;2023-05-13T02:33:20;74.05;;;57.72;;
55112;SDS011;41006;50.920;3.456;2023-05-13T02:33:50;77.03;;;57.80;;
55112;SDS011;41006;50.920;3.456;2023-05-13T02:34:20;84.95;;;61.67;;
55112;SDS011;41006;50.920;3.456;2023-05-13T02:34:51;72.82;;;56.40;;
55112;SDS011;41006;50.920;3.456;2023-05-13T02:35:21;75.28;;;59.78;;
55112;SDS011;41006;50.920;3.456;2023-05-13T02:35:55;81.03;;;58.72;;
55112;SDS011;41006;50.920;3.456;2023-05-13T02:36:26;81.05;;;59.13;;
55112;SDS011;41006;50.920;3.456;2023-05-13T02:36:56;78.60;;;57.25;;
55112;SDS011;41006;50.920;3.456;2023-05-13T02:37:26;77.55;;;58.20;;
55112;SDS011;41006;50.920;3.456;2023-05-13T02:38:01;75.43;;;57.30;;
55112;SDS011;41006;50.920;3.456;2023-05-13T02:38:33;77.35;;;58.90;;
55112;SDS011;41006;50.920;3.456;2023-05-13T02:39:06;80.55;;;58.67;;
55112;SDS011;41006;50.920;3.456;2023-05-13T02:39:37;75.35;;;58.05;;
55112;SDS011;41006;50.920;3.456;2023-05-13T02:40:08;81.30;;;57.28;;
55112;SDS011;41006;50.920;3.456;2023-05-13T02:40:38;79.35;;;55.40;;
55112;SDS011;41006;50.920;3.456;2023-05-13T02:41:11;74.40;;;57.58;;
55112;SDS011;41006;50.920;3.456;2023-05-13T02:41:44;86.30;;;57.30;;
55112;SDS011;41006;50.920;3.456;2023-05-13T02:42:17;83.22;;;57.97;;
55112;SDS011;41006;50.920;3.456;2023-05-13T02:42:48;75.30;;;56.72;;
55112;SDS011;41006;50.920;3.456;2023-05-13T02:43:18;75.38;;;56.83;;
55112;SDS011;41006;50.920;3.456;2023-05-13T02:43:52;74.85;;;58.95;;
55112;SDS011;41006;50.920;3.456;2023-05-13T02:44:22;70.47;;;56.47;;
55112;SDS011;41006;50.920;3.456;2023-05-13T02:44:55;71.07;;;57.88;;
55112;SDS011;41006;50.920;3.456;2023-05-13T02:45:28;75.60;;;57.80;;
55112;SDS011;41006;50.920;3.456;2023-05-13T02:45:59;72.35;;;56.45;;
55112;SDS011;41006;50.920;3.456;2023-05-13T02:46:32;81.25;;;55.65;;
55112;SDS011;41006;50.920;3.456;2023-05-13T02:47:04;81.60;;;57.13;;
55112;SDS011;41006;50.920;3.456;2023-05-13T02:47:35;79.57;;;58.45;;
55112;SDS011;41006;50.920;3.456;2023-05-13T02:48:08;83.75;;;59.55;;
55112;SDS011;41006;50.920;3.456;2023-05-13T02:48:40;84.30;;;59.03;;
55112;SDS011;41006;50.920;3.456;2023-05-13T02:49:15;76.78;;;57.88;;
55112;SDS011;41006;50.920;3.456;2023-05-13T02:49:46;80.38;;;57.90;;
55112;SDS011;41006;50.920;3.456;2023-05-13T02:50:16;86.53;;;59.33;;
55112;SDS011;41006;50.920;3.456;2023-05-13T02:50:48;81.03;;;58.50;;
55112;SDS011;41006;50.920;3.456;2023-05-13T02:51:19;86.68;;;58.50;;
55112;SDS011;41006;50.920;3.456;2023-05-13T02:51:52;87.63;;;60.17;;
55112;SDS011;41006;50.920;3.456;2023-05-13T02:52:24;86.97;;;59.80;;
55112;SDS011;41006;50.920;3.456;2023-05-13T02:52:54;82.75;;;60.08;;
55112;SDS011;41006;50.920;3.456;2023-05-13T02:53:25;86.68;;;60.80;;
55112;SDS011;41006;50.920;3.456;2023-05-13T02:53:56;75.88;;;59.65;;
55112;SDS011;41006;50.920;3.456;2023-05-13T02:54:28;83.18;;;60.65;;
55112;SDS011;41006;50.920;3.456;2023-05-13T02:55:01;81.45;;;60.58;;
55112;SDS011;41006;50.920;3.456;2023-05-13T02:55:32;83.68;;;60.17;;
55112;SDS011;41006;50.920;3.456;2023-05-13T02:56:04;88.30;;;59.55;;
55112;SDS011;41006;50.920;3.456;2023-05-13T02:56:35;84.13;;;60.20;;
55112;SDS011;41006;50.920;3.456;2023-05-13T02:57:05;78.13;;;60.33;;
55112;SDS011;41006;50.920;3.456;2023-05-13T02:57:36;77.57;;;61.25;;
55112;SDS011;41006;50.920;3.456;2023-05-13T02:58:09;86.97;;;60.25;;
55112;SDS011;41006;50.920;3.456;2023-05-13T02:58:42;77.25;;;59.30;;
55112;SDS011;41006;50.920;3.456;2023-05-13T02:59:12;87.53;;;61.55;;
55112;SDS011;41006;50.920;3.456;2023-05-13T02:59:42;80.50;;;57.40;;
55112;SDS011;41006;50.920;3.456;2023-05-13T03:00:13;72.72;;;58.60;;
55112;SDS011;41006;50.920;3.456;2023-05-13T03:00:44;79.80;;;60.42;;
55112;SDS011;41006;50.920;3.456;2023-05-13T03:01:17;82.13;;;58.05;;
55112;SDS011;41006;50.920;3.456;2023-05-13T03:01:51;84.32;;;61.33;;
55112;SDS011;41006;50.920;3.456;2023-05-13T03:02:22;85.38;;;59.95;;
55112;SDS011;41006;50.920;3.456;2023-05-13T03:02:52;83.50;;;58.53;;
55112;SDS011;41006;50.920;3.456;2023-05-13T03:03:23;86.30;;;61.65;;
55112;SDS011;41006;50.920;3.456;2023-05-13T03:03:56;75.03;;;59.00;;
55112;SDS011;41006;50.920;3.456;2023-05-13T03:04:26;80.47;;;60.40;;
55112;SDS011;41006;50.920;3.456;2023-05-13T03:04:57;86.07;;;59.60;;
55112;SDS011;41006;50.920;3.456;2023-05-13T03:05:27;84.13;;;59.78;;
55112;SDS011;41006;50.920;3.456;2023-05-13T03:05:57;82.78;;;61.40;;
55112;SDS011;41006;50.920;3.456;2023-05-13T03:06:28;78.75;;;58.88;;
55112;SDS011;41006;50.920;3.456;2023-05-13T03:06:58;83.45;;;59.47;;
55112;SDS011;41006;50.920;3.456;2023-05-13T03:07:31;77.53;;;60.63;;
55112;SDS011;41006;50.920;3.456;2023-05-13T03:08:01;80.43;;;59.35;;
55112;SDS011;41006;50.920;3.456;2023-05-13T03:08:34;78.32;;;58.92;;
55112;SDS011;41006;50.920;3.456;2023-05-13T03:09:04;84.18;;;59.92;;
55112;SDS011;41006;50.920;3.456;2023-05-13T03:09:37;80.28;;;58.67;;
55112;SDS011;41006;50.920;3.456;2023-05-13T03:10:08;84.63;;;61.00;;
55112;SDS011;41006;50.920;3.456;2023-05-13T03:10:41;88.85;;;59.83;;
55112;SDS011;41006;50.920;3.456;2023-05-13T03:11:14;77.97;;;58.78;;
55112;SDS011;41006;50.920;3.456;2023-05-13T03:11:44;81.82;;;59.30;;
55112;SDS011;41006;50.920;3.456;2023-05-13T03:12:15;78.93;;;60.58;;
55112;SDS011;41006;50.920;3.456;2023-05-13T03:12:45;77.28;;;59.05;;
55112;SDS011;41006;50.920;3.456;2023-05-13T03:13:16;81.30;;;58.30;;
55112;SDS011;41006;50.920;3.456;2023-05-13T03:13:46;93.22;;;60.20;;
55112;SDS011;41006;50.920;3.456;2023-05-13T03:14:16;80.40;;;60.15;;
55112;SDS011;41006;50.920;3.456;2023-05-13T03:14:47;84.80;;;59.95;;
55112;SDS011;41006;50.920;3.456;2023-05-13T03:15:17;96.95;;;62.45;;
55112;SDS011;41006;50.920;3.456;2023-05-13T03:15:48;81.22;;;59.28;;
55112;SDS011;41006;50.920;3.456;2023-05-13T03:16:18;78.82;;;59.55;;
55112;SDS011;41006;50.920;3.456;2023-05-13T03:16:51;76.00;;;58.50;;